Time;durP1;ratioP1;P1;durP2;ratioP2;P2;SDS_P1;SDS_P2;PMS_P1;PMS_P2;Temp;Humidity;BMP_temperature;BMP_pressure;BME280_temperature;BME280_humidity;BME280_pressure;Samples;Min_cycle;Max_cycle;Signal;HPM_P1;HPM_P2
2022/05/07 00:00:09;;;;;;;19.63;8.40;;;;;;;;;;5057236;28;20399;-83
2022/05/07 00:02:35;;;;;;;18.50;7.80;;;;;;;;;;5055472;28;20512;-82
2022/05/07 00:05:00;;;;;;;15.75;7.55;;;;;;;;;;5056219;28;20424;-84
2022/05/07 00:07:25;;;;;;;17.98;7.68;;;;;;;;;;5058429;28;20074;-84
2022/05/07 00:09:51;;;;;;;16.25;7.90;;;;;;;;;;5039025;28;20115;-83
2022/05/07 00:12:16;;;;;;;18.77;7.82;;;;;;;;;;5055582;28;20044;-84
2022/05/07 00:14:42;;;;;;;21.45;8.23;;;;;;;;;;5056799;28;20056;-83
2022/05/07 00:19:52;;;;;;;21.95;8.35;;;;;;;;;;5056475;28;20036;-83
2022/05/07 00:22:18;;;;;;;23.35;8.85;;;;;;;;;;5055305;28;20089;-82
2022/05/07 00:24:43;;;;;;;18.23;8.77;;;;;;;;;;5056583;28;20112;-83
2022/05/07 00:27:09;;;;;;;19.55;8.90;;;;;;;;;;5061643;28;20037;-83
2022/05/07 00:29:35;;;;;;;21.05;9.52;;;;;;;;;;5038568;28;20474;-82
2022/05/07 00:32:00;;;;;;;26.80;9.52;;;;;;;;;;5054834;28;20025;-83
2022/05/07 00:34:26;;;;;;;24.95;11.10;;;;;;;;;;5055173;28;20119;-81
2022/05/07 00:36:52;;;;;;;25.10;12.40;;;;;;;;;;5055146;28;20094;-83
2022/05/07 00:39:17;;;;;;;28.13;13.82;;;;;;;;;;5056204;28;20143;-83
2022/05/07 00:41:43;;;;;;;34.70;13.18;;;;;;;;;;5054988;28;20355;-82
2022/05/07 00:44:08;;;;;;;29.73;12.07;;;;;;;;;;5056609;28;20033;-82
2022/05/07 00:46:34;;;;;;;22.92;12.13;;;;;;;;;;5057172;28;20060;-80
2022/05/07 00:48:59;;;;;;;20.77;10.98;;;;;;;;;;5054222;28;20398;-81
2022/05/07 00:51:33;;;;;;;22.55;10.73;;;;;;;;;;5054683;28;20033;-82
2022/05/07 00:54:06;;;;;;;24.98;10.02;;;;;;;;;;5054900;28;20119;-81
2022/05/07 00:56:32;;;;;;;19.38;9.55;;;;;;;;;;5056373;28;20465;-81
2022/05/07 00:58:58;;;;;;;19.42;9.10;;;;;;;;;;5054991;28;20025;-83
2022/05/07 01:01:26;;;;;;;19.17;9.40;;;;;;;;;;5054665;28;20037;-83
2022/05/07 01:03:52;;;;;;;16.48;8.50;;;;;;;;;;5021979;28;20040;-81
2022/05/07 01:06:18;;;;;;;19.88;8.75;;;;;;;;;;5057951;28;20033;-82
2022/05/07 01:08:44;;;;;;;23.73;9.15;;;;;;;;;;5060317;28;20123;-82
2022/05/07 01:11:10;;;;;;;27.25;9.40;;;;;;;;;;5054538;28;20032;-83
2022/05/07 01:13:35;;;;;;;17.25;8.75;;;;;;;;;;5037578;28;20500;-82
2022/05/07 01:16:02;;;;;;;25.27;8.90;;;;;;;;;;5054281;28;20029;-81
2022/05/07 01:18:27;;;;;;;16.10;8.52;;;;;;;;;;5055424;28;20145;-82
2022/05/07 01:20:54;;;;;;;17.90;9.18;;;;;;;;;;5054452;28;20114;-83
2022/05/07 01:23:20;;;;;;;20.30;8.02;;;;;;;;;;5055420;28;20037;-82
2022/05/07 01:25:45;;;;;;;18.85;8.57;;;;;;;;;;5054104;28;20119;-82
2022/05/07 01:28:11;;;;;;;21.67;8.68;;;;;;;;;;5056377;28;20029;-82
2022/05/07 01:30:36;;;;;;;18.70;8.45;;;;;;;;;;5055153;28;20052;-82
2022/05/07 01:33:02;;;;;;;16.13;8.55;;;;;;;;;;5055142;28;20445;-80
2022/05/07 01:35:27;;;;;;;25.17;9.68;;;;;;;;;;5037576;28;20033;-81
2022/05/07 01:37:53;;;;;;;19.77;8.90;;;;;;;;;;5053925;28;20094;-81
2022/05/07 01:40:18;;;;;;;22.13;9.25;;;;;;;;;;5055220;28;20426;-81
2022/05/07 01:42:44;;;;;;;17.85;9.40;;;;;;;;;;5020854;28;20099;-82
2022/05/07 01:45:09;;;;;;;21.98;10.00;;;;;;;;;;5054754;28;20060;-81
2022/05/07 01:50:22;;;;;;;20.60;9.90;;;;;;;;;;5039787;28;20082;-81
2022/05/07 01:52:48;;;;;;;29.55;9.15;;;;;;;;;;5053946;28;20032;-82
2022/05/07 01:55:13;;;;;;;15.50;8.85;;;;;;;;;;5053541;28;20024;-81
2022/05/07 01:57:39;;;;;;;22.48;9.77;;;;;;;;;;5054951;28;20465;-82
2022/05/07 02:00:05;;;;;;;19.70;9.38;;;;;;;;;;5036597;28;20056;-81
2022/05/07 02:02:30;;;;;;;20.33;8.25;;;;;;;;;;5053245;28;20060;-82
2022/05/07 02:04:56;;;;;;;15.02;8.73;;;;;;;;;;5020464;28;20118;-82
2022/05/07 02:07:21;;;;;;;20.20;9.27;;;;;;;;;;5058616;28;20025;-80
2022/05/07 02:09:47;;;;;;;20.73;8.75;;;;;;;;;;5056079;28;20034;-82
2022/05/07 02:12:12;;;;;;;18.67;8.70;;;;;;;;;;5036790;28;20431;-82
2022/05/07 02:14:38;;;;;;;17.52;9.02;;;;;;;;;;5054259;28;20029;-81
2022/05/07 02:17:03;;;;;;;16.10;8.18;;;;;;;;;;5054404;28;20036;-81
2022/05/07 02:19:29;;;;;;;19.55;8.55;;;;;;;;;;5020026;28;20442;-81
2022/05/07 02:21:54;;;;;;;20.58;9.75;;;;;;;;;;5054246;28;20425;-82
2022/05/07 02:24:20;;;;;;;20.48;8.52;;;;;;;;;;5054096;28;20029;-81
2022/05/07 02:26:45;;;;;;;23.58;9.27;;;;;;;;;;5054154;28;20033;-81
2022/05/07 02:29:11;;;;;;;16.75;9.10;;;;;;;;;;5057647;28;20117;-81
2022/05/07 02:31:36;;;;;;;18.05;9.00;;;;;;;;;;5052754;28;20064;-82
2022/05/07 02:34:01;;;;;;;16.38;8.95;;;;;;;;;;5036241;28;20113;-81
2022/05/07 02:36:27;;;;;;;23.55;9.45;;;;;;;;;;5053488;28;20032;-81
2022/05/07 02:38:52;;;;;;;22.17;9.38;;;;;;;;;;5052883;28;20028;-81
2022/05/07 02:44:09;;;;;;;20.02;9.00;;;;;;;;;;5044956;28;20595;-81
2022/05/07 02:46:35;;;;;;;20.15;9.20;;;;;;;;;;5054180;28;20057;-81
2022/05/07 02:49:01;;;;;;;21.58;8.38;;;;;;;;;;5029383;28;20052;-81
2022/05/07 02:51:26;;;;;;;18.67;8.45;;;;;;;;;;5052778;28;20058;-82
2022/05/07 02:53:51;;;;;;;15.45;8.05;;;;;;;;;;5053884;28;20028;-81
2022/05/07 02:56:17;;;;;;;16.48;8.13;;;;;;;;;;5053659;28;20029;-81
2022/05/07 02:58:42;;;;;;;25.98;8.45;;;;;;;;;;5054000;28;20108;-81
2022/05/07 03:01:08;;;;;;;19.15;7.88;;;;;;;;;;5053846;28;20340;-82
2022/05/07 03:03:33;;;;;;;22.85;7.60;;;;;;;;;;5052692;28;20048;-81
2022/05/07 03:05:59;;;;;;;14.82;7.35;;;;;;;;;;5052791;28;20083;-81
2022/05/07 03:08:25;;;;;;;18.63;8.02;;;;;;;;;;5036878;28;20029;-79
2022/05/07 03:10:50;;;;;;;29.92;8.27;;;;;;;;;;5053914;28;20043;-82
2022/05/07 03:13:16;;;;;;;22.73;7.55;;;;;;;;;;5054745;28;20106;-82
2022/05/07 03:15:41;;;;;;;20.17;8.32;;;;;;;;;;5058305;28;20033;-80
2022/05/07 03:18:07;;;;;;;18.75;7.53;;;;;;;;;;5056744;28;20032;-81
2022/05/07 03:20:32;;;;;;;15.88;8.05;;;;;;;;;;5057741;28;20032;-81
2022/05/07 03:22:58;;;;;;;19.45;7.40;;;;;;;;;;5039937;28;20017;-81
2022/05/07 03:25:24;;;;;;;12.65;6.93;;;;;;;;;;5056241;28;20025;-81
2022/05/07 03:27:49;;;;;;;14.57;8.02;;;;;;;;;;5056584;28;20048;-81
2022/05/07 03:30:15;;;;;;;15.30;8.07;;;;;;;;;;5056809;28;20021;-81
2022/05/07 03:32:40;;;;;;;21.02;8.23;;;;;;;;;;5039671;28;20064;-81
2022/05/07 03:35:06;;;;;;;15.57;7.38;;;;;;;;;;5056532;28;20028;-81
2022/05/07 03:37:31;;;;;;;19.08;7.88;;;;;;;;;;5056343;28;20029;-81
2022/05/07 03:39:57;;;;;;;15.65;7.97;;;;;;;;;;5039246;28;20108;-81
2022/05/07 03:42:23;;;;;;;13.52;7.30;;;;;;;;;;5039660;28;20063;-81
2022/05/07 03:44:48;;;;;;;23.92;8.23;;;;;;;;;;5040047;28;20025;-81
2022/05/07 03:47:14;;;;;;;18.13;8.40;;;;;;;;;;5057565;28;20417;-81
2022/05/07 03:49:40;;;;;;;19.20;8.18;;;;;;;;;;5058782;28;20025;-81
2022/05/07 03:54:49;;;;;;;17.40;8.05;;;;;;;;;;5056833;28;20473;-81
2022/05/07 03:57:16;;;;;;;19.10;9.00;;;;;;;;;;5056093;28;20029;-81
2022/05/07 03:59:42;;;;;;;24.35;8.88;;;;;;;;;;5039336;28;20086;-81
2022/05/07 04:02:08;;;;;;;22.75;9.27;;;;;;;;;;5039430;28;20127;-81
2022/05/07 04:04:33;;;;;;;20.20;8.05;;;;;;;;;;5055698;28;20075;-82
2022/05/07 04:06:59;;;;;;;25.60;8.68;;;;;;;;;;5055653;28;20080;-81
2022/05/07 04:09:24;;;;;;;22.70;8.73;;;;;;;;;;5062961;28;20029;-81
2022/05/07 04:11:50;;;;;;;20.58;8.57;;;;;;;;;;5058942;28;20025;-81
2022/05/07 04:14:16;;;;;;;25.13;9.13;;;;;;;;;;5056464;28;20111;-81
2022/05/07 04:16:41;;;;;;;18.05;8.23;;;;;;;;;;5056599;28;20049;-81
2022/05/07 04:19:06;;;;;;;26.90;8.88;;;;;;;;;;5055454;28;20017;-82
2022/05/07 04:21:34;;;;;;;19.02;7.70;;;;;;;;;;5056630;28;20056;-81
2022/05/07 04:24:00;;;;;;;20.55;8.07;;;;;;;;;;5056145;28;20028;-81
2022/05/07 04:26:25;;;;;;;17.48;8.73;;;;;;;;;;5055258;28;20036;-82
2022/05/07 04:28:51;;;;;;;16.58;8.65;;;;;;;;;;5057186;28;20404;-81
2022/05/07 04:31:18;;;;;;;15.25;8.30;;;;;;;;;;5064415;28;20037;-81
2022/05/07 04:33:45;;;;;;;17.15;8.57;;;;;;;;;;5055332;28;20045;-82
2022/05/07 04:36:10;;;;;;;23.58;8.35;;;;;;;;;;5056348;28;20024;-81
2022/05/07 04:38:36;;;;;;;19.15;8.68;;;;;;;;;;5055959;28;20035;-81
2022/05/07 04:41:01;;;;;;;17.92;8.27;;;;;;;;;;5056210;28;20024;-82
2022/05/07 04:43:27;;;;;;;21.45;8.30;;;;;;;;;;5055037;28;20097;-81
2022/05/07 04:45:52;;;;;;;23.63;8.82;;;;;;;;;;5038616;28;20041;-82
2022/05/07 04:48:17;;;;;;;24.75;8.80;;;;;;;;;;5061817;28;20036;-81
2022/05/07 04:50:43;;;;;;;21.10;9.10;;;;;;;;;;5054783;28;20115;-82
2022/05/07 04:53:08;;;;;;;23.63;8.88;;;;;;;;;;5055835;28;20029;-82
2022/05/07 04:55:34;;;;;;;21.95;8.80;;;;;;;;;;5055932;28;20494;-82
2022/05/07 04:58:00;;;;;;;24.25;9.50;;;;;;;;;;5056008;28;20037;-81
2022/05/07 05:00:25;;;;;;;25.13;9.80;;;;;;;;;;5056084;28;20064;-82
2022/05/07 05:02:51;;;;;;;21.58;9.63;;;;;;;;;;5054668;28;20033;-84
2022/05/07 05:05:16;;;;;;;25.20;9.75;;;;;;;;;;5054675;28;20343;-81
2022/05/07 05:07:43;;;;;;;27.95;9.68;;;;;;;;;;5058414;28;20040;-83
2022/05/07 05:10:09;;;;;;;22.33;10.00;;;;;;;;;;5059575;28;20136;-83
2022/05/07 05:12:34;;;;;;;22.35;10.32;;;;;;;;;;5055702;28;20091;-84
2022/05/07 05:15:06;;;;;;;23.10;9.65;;;;;;;;;;5055681;28;20125;-84
2022/05/07 05:17:32;;;;;;;17.52;9.27;;;;;;;;;;5055807;28;20373;-83
2022/05/07 05:19:59;;;;;;;19.65;9.68;;;;;;;;;;5055422;28;20417;-84
2022/05/07 05:22:24;;;;;;;18.25;10.20;;;;;;;;;;5037438;28;20454;-82
2022/05/07 05:24:50;;;;;;;18.10;9.57;;;;;;;;;;5055190;28;20116;-80
2022/05/07 05:27:16;;;;;;;25.58;10.90;;;;;;;;;;5055732;28;20025;-83
2022/05/07 05:29:41;;;;;;;20.77;9.93;;;;;;;;;;5062712;28;20033;-86
2022/05/07 05:32:07;;;;;;;18.95;9.82;;;;;;;;;;5020999;28;20048;-84
2022/05/07 05:34:33;;;;;;;24.67;11.20;;;;;;;;;;5053682;28;20029;-82
2022/05/07 05:36:58;;;;;;;23.13;10.18;;;;;;;;;;5054576;28;20363;-83
2022/05/07 05:39:24;;;;;;;24.17;10.77;;;;;;;;;;5055226;28;20040;-84
2022/05/07 05:41:50;;;;;;;20.83;10.65;;;;;;;;;;5053927;28;20075;-85
2022/05/07 05:44:15;;;;;;;22.02;10.73;;;;;;;;;;5055050;28;20025;-85
2022/05/07 05:46:41;;;;;;;21.35;10.45;;;;;;;;;;5055084;28;20025;-86
2022/05/07 05:49:06;;;;;;;19.83;10.15;;;;;;;;;;5058358;28;20132;-85
2022/05/07 05:51:32;;;;;;;22.17;10.23;;;;;;;;;;5055239;28;20175;-85
2022/05/07 05:53:58;;;;;;;19.35;9.48;;;;;;;;;;5054870;28;20116;-84
2022/05/07 05:56:23;;;;;;;19.55;9.80;;;;;;;;;;5037515;28;20456;-82
2022/05/07 05:58:49;;;;;;;20.80;10.40;;;;;;;;;;5053599;28;20078;-84
2022/05/07 06:01:14;;;;;;;21.85;9.27;;;;;;;;;;5037134;28;20021;-84
2022/05/07 06:03:40;;;;;;;23.42;10.27;;;;;;;;;;5053477;28;20374;-82
2022/05/07 06:06:05;;;;;;;18.33;9.32;;;;;;;;;;5054444;28;20111;-86
2022/05/07 06:08:30;;;;;;;22.48;9.90;;;;;;;;;;5057052;28;20023;-84
2022/05/07 06:10:57;;;;;;;18.40;9.30;;;;;;;;;;5059877;28;20029;-84
2022/05/07 06:13:23;;;;;;;21.08;9.75;;;;;;;;;;5055042;28;20079;-86
2022/05/07 06:15:52;;;;;;;19.17;9.57;;;;;;;;;;5036716;28;20040;-85
2022/05/07 06:18:21;;;;;;;18.08;9.77;;;;;;;;;;5053586;28;20052;-83
2022/05/07 06:20:48;;;;;;;16.33;9.48;;;;;;;;;;5036811;28;20079;-85
2022/05/07 06:23:17;;;;;;;23.35;9.75;;;;;;;;;;5053265;28;20409;-83
2022/05/07 06:28:27;;;;;;;20.50;9.60;;;;;;;;;;5053992;28;20036;-83
2022/05/07 06:30:52;;;;;;;22.60;10.93;;;;;;;;;;5025590;28;20363;-83
2022/05/07 06:33:18;;;;;;;21.80;10.27;;;;;;;;;;5069770;28;20087;-83
2022/05/07 06:35:44;;;;;;;20.75;10.23;;;;;;;;;;5053018;28;20043;-86
2022/05/07 06:38:10;;;;;;;19.70;10.05;;;;;;;;;;5036754;28;20033;-82
2022/05/07 06:40:38;;;;;;;20.48;9.98;;;;;;;;;;5052970;28;20412;-82
2022/05/07 06:43:07;;;;;;;23.58;10.07;;;;;;;;;;5036616;28;20025;-84
2022/05/07 06:45:32;;;;;;;21.58;10.18;;;;;;;;;;5054501;28;20071;-83
2022/05/07 06:47:58;;;;;;;19.80;9.85;;;;;;;;;;5019446;28;20064;-86
2022/05/07 06:50:24;;;;;;;18.48;10.07;;;;;;;;;;5042178;28;20467;-83
2022/05/07 06:52:49;;;;;;;27.88;9.88;;;;;;;;;;5036237;28;20036;-86
2022/05/07 06:55:15;;;;;;;21.90;10.73;;;;;;;;;;5052793;28;20036;-83
2022/05/07 06:57:41;;;;;;;21.60;10.75;;;;;;;;;;5019866;28;20088;-86
2022/05/07 07:00:08;;;;;;;16.30;9.63;;;;;;;;;;5053236;28;20048;-82
2022/05/07 07:02:33;;;;;;;20.63;9.80;;;;;;;;;;5052641;28;20033;-82
2022/05/07 07:05:00;;;;;;;18.02;10.32;;;;;;;;;;5053866;28;20465;-86
2022/05/07 07:07:26;;;;;;;18.13;9.55;;;;;;;;;;5052914;28;20460;-82
2022/05/07 07:09:52;;;;;;;20.63;9.85;;;;;;;;;;5039358;28;20043;-82
2022/05/07 07:12:19;;;;;;;18.52;9.90;;;;;;;;;;5056041;28;20116;-83
2022/05/07 07:14:48;;;;;;;21.75;9.98;;;;;;;;;;5053998;28;20029;-85
2022/05/07 07:17:16;;;;;;;18.83;9.37;;;;;;;;;;5052630;28;20025;-85
2022/05/07 07:19:42;;;;;;;16.30;8.70;;;;;;;;;;5052693;28;20048;-85
2022/05/07 07:22:08;;;;;;;17.65;8.77;;;;;;;;;;5035917;28;20021;-83
2022/05/07 07:24:33;;;;;;;15.23;8.35;;;;;;;;;;5069215;28;20036;-83
2022/05/07 07:26:59;;;;;;;19.83;9.63;;;;;;;;;;5036117;28;20025;-81
2022/05/07 07:29:25;;;;;;;23.23;9.88;;;;;;;;;;5052640;28;20116;-84
2022/05/07 07:31:51;;;;;;;14.55;8.45;;;;;;;;;;5058787;28;20451;-83
2022/05/07 07:34:17;;;;;;;20.50;8.93;;;;;;;;;;5020328;28;20048;-82
2022/05/07 07:36:44;;;;;;;14.70;8.60;;;;;;;;;;5019928;28;20450;-83
2022/05/07 07:39:10;;;;;;;15.40;8.98;;;;;;;;;;5052362;28;20481;-83
2022/05/07 07:41:36;;;;;;;30.55;10.40;;;;;;;;;;5053608;28;20032;-82
2022/05/07 07:44:01;;;;;;;19.33;8.40;;;;;;;;;;5052398;28;20033;-81
2022/05/07 07:49:11;;;;;;;17.17;8.10;;;;;;;;;;5052635;28;20055;-82
2022/05/07 07:51:36;;;;;;;18.63;8.18;;;;;;;;;;5060173;28;20036;-83
2022/05/07 07:54:02;;;;;;;12.75;7.32;;;;;;;;;;5052249;28;20039;-86
2022/05/07 07:56:28;;;;;;;13.43;7.20;;;;;;;;;;5052426;28;20029;-84
2022/05/07 07:58:53;;;;;;;20.05;7.65;;;;;;;;;;5020954;28;20033;-84
2022/05/07 08:01:19;;;;;;;13.85;7.80;;;;;;;;;;5055613;28;20347;-83
2022/05/07 08:03:44;;;;;;;12.10;7.28;;;;;;;;;;5055792;28;20086;-83
2022/05/07 08:06:10;;;;;;;16.05;7.38;;;;;;;;;;5056084;28;20032;-84
2022/05/07 08:14:03;;;;;;;15.43;7.07;;;;;;;;;;5056756;28;20064;-81
2022/05/07 08:16:29;;;;;;;14.55;7.60;;;;;;;;;;5056653;28;20367;-83
2022/05/07 08:18:54;;;;;;;19.27;7.47;;;;;;;;;;5056698;28;20041;-82
2022/05/07 08:21:20;;;;;;;13.75;6.78;;;;;;;;;;5056707;28;20033;-85
2022/05/07 08:23:45;;;;;;;18.15;6.90;;;;;;;;;;5055345;28;20045;-82
2022/05/07 08:26:11;;;;;;;10.27;5.72;;;;;;;;;;5038626;28;20378;-83
2022/05/07 08:28:37;;;;;;;13.07;6.80;;;;;;;;;;5055476;28;20105;-85
2022/05/07 08:31:03;;;;;;;11.88;6.30;;;;;;;;;;5058651;28;20044;-84
2022/05/07 08:33:29;;;;;;;12.57;5.93;;;;;;;;;;5058672;28;20029;-82
2022/05/07 08:35:54;;;;;;;13.13;6.47;;;;;;;;;;5055073;28;20029;-84
2022/05/07 08:38:20;;;;;;;13.52;6.40;;;;;;;;;;5055107;28;20040;-83
2022/05/07 08:40:45;;;;;;;10.32;5.90;;;;;;;;;;5055326;28;20029;-84
2022/05/07 08:43:11;;;;;;;17.15;6.55;;;;;;;;;;5055237;28;20025;-82
2022/05/07 08:45:39;;;;;;;12.27;6.20;;;;;;;;;;5021894;28;20132;-85
2022/05/07 08:48:05;;;;;;;14.45;6.22;;;;;;;;;;5038542;28;20382;-84
2022/05/07 08:50:31;;;;;;;10.05;5.28;;;;;;;;;;5055980;28;20040;-83
2022/05/07 08:52:56;;;;;;;10.68;5.80;;;;;;;;;;5063081;28;20040;-86
2022/05/07 08:55:22;;;;;;;17.30;6.35;;;;;;;;;;5039457;28;20035;-86
2022/05/07 08:57:48;;;;;;;11.38;5.65;;;;;;;;;;5054849;28;20040;-86
2022/05/07 09:00:24;;;;;;;12.55;6.72;;;;;;;;;;5038765;28;20040;-82
2022/05/07 09:02:51;;;;;;;11.40;6.07;;;;;;;;;;5038179;28;20040;-83
2022/05/07 09:05:19;;;;;;;7.75;5.90;;;;;;;;;;5055790;28;20378;-83
2022/05/07 09:07:55;;;;;;;9.43;5.50;;;;;;;;;;5056619;28;20021;-83
2022/05/07 09:10:20;;;;;;;10.45;5.95;;;;;;;;;;5039998;28;20044;-83
2022/05/07 09:12:46;;;;;;;12.95;5.80;;;;;;;;;;5062469;28;20041;-84
2022/05/07 09:15:11;;;;;;;9.95;5.75;;;;;;;;;;5058482;28;20064;-84
2022/05/07 09:17:37;;;;;;;10.75;6.45;;;;;;;;;;5055360;28;20025;-82
2022/05/07 09:20:16;;;;;;;10.13;5.88;;;;;;;;;;5037711;28;20472;-83
2022/05/07 09:22:48;;;;;;;16.55;6.03;;;;;;;;;;5054613;28;20086;-84
2022/05/07 09:25:42;;;;;;;13.35;6.35;;;;;;;;;;5055395;28;20025;-83
2022/05/07 09:28:08;;;;;;;9.75;6.07;;;;;;;;;;5054194;28;20386;-82
2022/05/07 09:30:33;;;;;;;16.50;5.68;;;;;;;;;;5054495;28;20033;-82
2022/05/07 09:32:59;;;;;;;12.80;6.05;;;;;;;;;;5060855;28;20036;-83
2022/05/07 09:38:12;;;;;;;9.10;5.22;;;;;;;;;;5033531;28;20031;-86
2022/05/07 09:40:42;;;;;;;11.70;5.65;;;;;;;;;;5034704;28;20030;-84
2022/05/07 09:43:08;;;;;;;16.13;6.50;;;;;;;;;;5034766;28;20031;-83
2022/05/07 09:45:34;;;;;;;11.40;5.28;;;;;;;;;;5040983;28;20026;-82
2022/05/07 09:47:59;;;;;;;10.38;5.47;;;;;;;;;;5046615;28;20013;-89
2022/05/07 09:58:35;;;;;;;12.38;5.53;;;;;;;;;;5034490;28;20028;-84
2022/05/07 10:01:31;;;;;;;9.88;5.22;;;;;;;;;;5034744;28;20386;-81
2022/05/07 10:04:24;;;;;;;13.50;5.05;;;;;;;;;;5034887;28;20666;-81
2022/05/07 10:07:20;;;;;;;13.48;5.47;;;;;;;;;;5033750;28;20029;-83
2022/05/07 10:09:58;;;;;;;9.48;4.97;;;;;;;;;;5034646;28;20522;-84
2022/05/07 10:12:24;;;;;;;12.13;5.43;;;;;;;;;;5037898;28;20089;-82
2022/05/07 10:14:49;;;;;;;12.88;5.47;;;;;;;;;;5040374;28;20068;-82
2022/05/07 10:17:15;;;;;;;15.85;5.35;;;;;;;;;;5033632;28;20051;-82
2022/05/07 10:19:45;;;;;;;11.45;5.45;;;;;;;;;;5033586;28;20035;-82
2022/05/07 10:22:17;;;;;;;;;;;;;;;;;;5050505;28;20029;-85
2022/05/07 10:24:43;;;;;;;;;;;;;;;;;;5034946;28;19920;-82
2022/05/07 10:27:20;;;;;;;;;;;;;;;;;;5034681;28;19917;-80
2022/05/07 10:29:47;;;;;;;;;;;;;;;;;;5034876;28;20016;-82
2022/05/07 10:32:12;;;;;;;;;;;;;;;;;;5050457;28;20003;-82
2022/05/07 10:34:38;;;;;;;;;;;;;;;;;;5040133;28;19963;-83
2022/05/07 10:37:03;;;;;;;;;;;;;;;;;;5034761;28;20011;-82
2022/05/07 10:39:30;;;;;;;;;;;;;;;;;;5050320;28;19913;-83
2022/05/07 10:41:57;;;;;;;;;;;;;;;;;;5050166;28;19913;-83
2022/05/07 10:44:32;;;;;;;;;;;;;;;;;;5033764;28;19935;-80
2022/05/07 10:47:21;;;;;;;;;;;;;;;;;;5035305;28;19920;-80
2022/05/07 10:49:53;;;;;;;;;;;;;;;;;;5034538;28;20002;-84
2022/05/07 10:52:28;;;;;;;;;;;;;;;;;;5033677;28;20000;-81
2022/05/07 10:55:22;;;;;;;;;;;;;;;;;;5036351;28;19912;-82
2022/05/07 10:57:48;;;;;;;;;;;;;;;;;;5037787;28;20012;-79
2022/05/07 11:00:14;;;;;;;;;;;;;;;;;;5033723;28;20005;-83
2022/05/07 11:02:40;;;;;;;;;;;;;;;;;;5035327;28;20086;-84
2022/05/07 11:05:06;;;;;;;;;;;;;;;;;;5034755;28;20389;-81
2022/05/07 11:07:32;;;;;;;;;;;;;;;;;;5049997;28;20059;-83
2022/05/07 11:09:58;;;;;;;;;;;;;;;;;;5049408;28;19913;-82
2022/05/07 11:12:24;;;;;;;;;;;;;;;;;;5033419;28;19913;-83
2022/05/07 11:14:51;;;;;;;;;;;;;;;;;;5038597;28;19935;-83
2022/05/07 11:17:27;;;;;;;;;;;;;;;;;;5035903;28;20620;-81
2022/05/07 11:19:52;;;;;;;;;;;;;;;;;;5049942;28;19913;-85
2022/05/07 11:22:17;;;;;;;;;;;;;;;;;;5050192;28;20289;-81
2022/05/07 11:24:43;;;;;;;;;;;;;;;;;;5049770;28;19944;-83
2022/05/07 11:27:11;;;;;;;;;;;;;;;;;;5035035;28;19921;-81
2022/05/07 11:29:36;;;;;;;;;;;;;;;;;;5049845;28;19913;-81
2022/05/07 11:32:07;;;;;;;;;;;;;;;;;;5049953;28;19913;-83
2022/05/07 11:34:37;;;;;;;;;;;;;;;;;;5041829;28;19913;-81
2022/05/07 11:37:24;;;;;;;;;;;;;;;;;;5038676;28;19913;-82
2022/05/07 11:39:52;;;;;;;;;;;;;;;;;;5053529;28;19912;-82
2022/05/07 11:42:27;;;;;;;;;;;;;;;;;;5053790;28;19971;-81
2022/05/07 11:47:37;;;;;;;;;;;;;;;;;;5051002;28;19920;-83
2022/05/07 11:50:06;;;;;;;;;;;;;;;;;;5038014;28;19912;-84
2022/05/07 11:52:31;;;;;;;;;;;;;;;;;;5037767;28;19942;-86
2022/05/07 11:55:02;;;;;;;;;;;;;;;;;;5041888;28;20004;-83
2022/05/07 11:57:28;;;;;;;;;;;;;;;;;;5039252;28;19955;-83
2022/05/07 11:59:53;;;;;;;;;;;;;;;;;;5053167;28;19912;-83
2022/05/07 12:02:19;;;;;;;;;;;;;;;;;;5038140;28;20369;-82
2022/05/07 12:04:45;;;;;;;;;;;;;;;;;;5037581;28;19913;-83
2022/05/07 12:07:12;;;;;;;;;;;;;;;;;;5036569;28;20026;-84
2022/05/07 12:09:37;;;;;;;;;;;;;;;;;;5052834;28;19913;-82
2022/05/07 12:12:03;;;;;;;;;;;;;;;;;;5036358;28;19920;-81
2022/05/07 12:14:28;;;;;;;;;;;;;;;;;;5040194;28;19915;-83
2022/05/07 12:19:38;;;;;;;;;;;;;;;;;;5050768;28;19919;-79
2022/05/07 12:30:15;;;;;;;;;;;;;;;;;;5037298;28;19920;-82
2022/05/07 12:32:43;;;;;;;;;;;;;;;;;;5037291;28;19913;-85
2022/05/07 12:35:09;;;;;;;;;;;;;;;;;;5054552;28;19900;-84
2022/05/07 12:37:34;;;;;;;;;;;;;;;;;;5054105;28;19972;-83
2022/05/07 12:39:59;;;;;;;;;;;;;;;;;;5037287;28;19947;-81
2022/05/07 12:42:25;;;;;;;;;;;;;;;;;;5052271;28;20330;-82
2022/05/07 12:44:50;;;;;;;;;;;;;;;;;;5036862;28;19936;-83
2022/05/07 12:47:18;;;;;;;;;;;;;;;;;;5035912;28;19913;-81
2022/05/07 12:49:43;;;;;;;;;;;;;;;;;;5035693;28;19922;-83
2022/05/07 12:52:09;;;;;;;;;;;;;;;;;;5035743;28;19920;-83
2022/05/07 12:54:35;;;;;;;;;;;;;;;;;;5035982;28;19920;-82
2022/05/07 12:57:00;;;;;;;;;;;;;;;;;;5053095;28;19913;-82
2022/05/07 12:59:26;;;;;;;;;;;;;;;;;;5035544;28;19917;-84
2022/05/07 13:01:51;;;;;;;;;;;;;;;;;;5036847;28;19916;-81
2022/05/07 13:04:18;;;;;;;;;;;;;;;;;;5035205;28;20388;-81
2022/05/07 13:06:43;;;;;;;;;;;;;;;;;;5035644;28;19913;-83
2022/05/07 13:09:08;;;;;;;;;;;;;;;;;;5035374;28;19924;-85
2022/05/07 13:11:34;;;;;;;;;;;;;;;;;;5036635;28;19913;-81
2022/05/07 13:13:59;;;;;;;;;;;;;;;;;;5051949;28;19917;-83
2022/05/07 13:16:25;;;;;;;;;;;;;;;;;;5055760;28;19913;-82
2022/05/07 13:18:50;;;;;;;;;;;;;;;;;;5053215;28;19913;-83
2022/05/07 13:21:15;;;;;;;;;;;;;;;;;;5035901;28;20334;-82
2022/05/07 13:23:41;;;;;;;;;;;;;;;;;;5052349;28;20462;-81
2022/05/07 13:26:07;;;;;;;;;;;;;;;;;;5052203;28;20358;-82
2022/05/07 13:28:34;;;;;;;;;;;;;;;;;;5035269;28;20322;-83
2022/05/07 13:30:59;;;;;;;;;;;;;;;;;;5034976;28;20003;-83
2022/05/07 13:33:25;;;;;;;;;;;;;;;;;;5051667;28;20373;-82
2022/05/07 13:35:51;;;;;;;;;;;;;;;;;;5054703;28;20323;-83
2022/05/07 13:38:16;;;;;;;;;;;;;;;;;;5055249;28;19912;-83
2022/05/07 13:40:41;;;;;;;;;;;;;;;;;;5036600;28;19967;-82
2022/05/07 13:43:07;;;;;;;;;;;;;;;;;;5051287;28;19948;-82
2022/05/07 13:45:32;;;;;;;;;;;;;;;;;;5051119;28;20330;-84
2022/05/07 13:47:57;;;;;;;;;;;;;;;;;;5051282;28;19915;-81
2022/05/07 13:50:23;;;;;;;;;;;;;;;;;;5035661;28;20350;-82
2022/05/07 13:52:48;;;;;;;;;;;;;;;;;;5034526;28;19917;-83
2022/05/07 13:55:14;;;;;;;;;;;;;;;;;;5035700;28;19909;-81
2022/05/07 13:57:39;;;;;;;;;;;;;;;;;;5055451;28;19916;-81
2022/05/07 14:00:07;;;;;;;;;;;;;;;;;;5051857;28;20346;-84
2022/05/07 14:02:34;;;;;;;;;;;;;;;;;;5051248;28;19912;-81
2022/05/07 14:05:00;;;;;;;;;;;;;;;;;;5035397;28;19913;-83
2022/05/07 14:07:26;;;;;;;;;;;;;;;;;;5050606;28;19958;-83
2022/05/07 14:09:52;;;;;;;;;;;;;;;;;;5034115;28;19938;-83
2022/05/07 14:12:17;;;;;;;;;;;;;;;;;;5050470;28;19913;-81
2022/05/07 14:14:43;;;;;;;;;;;;;;;;;;5035685;28;19919;-82
2022/05/07 14:17:08;;;;;;;;;;;;;;;;;;5054864;28;19924;-81
2022/05/07 14:19:34;;;;;;;;;;;;;;;;;;5036785;28;19913;-83
2022/05/07 14:22:00;;;;;;;;;;;;;;;;;;5050942;28;19917;-84
2022/05/07 14:24:26;;;;;;;;;;;;;;;;;;5034450;28;19913;-83
2022/05/07 14:26:51;;;;;;;;;;;;;;;;;;5035348;28;19913;-82
2022/05/07 14:29:16;;;;;;;;;;;;;;;;;;5034267;28;19963;-81
2022/05/07 14:31:42;;;;;;;;;;;;;;;;;;5051199;28;20343;-81
2022/05/07 14:34:07;;;;;;;;;;;;;;;;;;5034680;28;19913;-82
2022/05/07 14:36:33;;;;;;;;;;;;;;;;;;5036094;28;19964;-85
2022/05/07 14:38:58;;;;;;;;;;;;;;;;;;5039691;28;19913;-82
2022/05/07 14:41:23;;;;;;;;;;;;;;;;;;5035071;28;19999;-84
2022/05/07 14:43:49;;;;;;;;;;;;;;;;;;5050324;28;20318;-81
2022/05/07 14:46:15;;;;;;;;;;;;;;;;;;5034986;28;19913;-84
2022/05/07 14:48:40;;;;;;;;;;;;;;;;;;5034645;28;19917;-85
2022/05/07 14:51:05;;;;;;;;;;;;;;;;;;5050285;28;19913;-83
2022/05/07 14:53:31;;;;;;;;;;;;;;;;;;5050085;28;20343;-81
2022/05/07 14:55:56;;;;;;;;;;;;;;;;;;5051493;28;20058;-82
2022/05/07 14:58:21;;;;;;;;;;;;;;;;;;5042040;28;19947;-83
2022/05/07 15:00:47;;;;;;;;;;;;;;;;;;5035282;28;19913;-81
2022/05/07 15:03:13;;;;;;;;;;;;;;;;;;5050053;28;19917;-81
2022/05/07 15:05:38;;;;;;;;;;;;;;;;;;5034742;28;20289;-83
2022/05/07 15:10:48;;;;;;;;;;;;;;;;;;5038828;28;19919;-82
2022/05/07 15:13:14;;;;;;;;;;;;;;;;;;5054081;28;20007;-81
2022/05/07 15:15:40;;;;;;;;;;;;;;;;;;5038749;28;19913;-81
2022/05/07 15:18:05;;;;;;;;;;;;;;;;;;5041868;28;19957;-82
2022/05/07 15:20:31;;;;;;;;;;;;;;;;;;5039899;28;20468;-81
2022/05/07 15:22:57;;;;;;;;;;;;;;;;;;5037786;28;19913;-83
2022/05/07 15:25:22;;;;;;;;;;;;;;;;;;5037287;28;19913;-82
2022/05/07 15:27:48;;;;;;;;;;;;;;;;;;5038584;28;19920;-82
2022/05/07 15:30:16;;;;;;;;;;;;;;;;;;5053704;28;19920;-82
2022/05/07 15:38:10;;;;;;;;;;;;;;;;;;5055959;28;19962;-81
2022/05/07 15:40:35;;;;;;;;;;;;;;;;;;5040537;28;20352;-81
2022/05/07 15:43:01;;;;;;;;;;;;;;;;;;5054070;28;19913;-84
2022/05/07 15:45:26;;;;;;;;;;;;;;;;;;5038832;28;20246;-83
2022/05/07 15:47:52;;;;;;;;;;;;;;;;;;5036964;28;20231;-82
2022/05/07 15:50:18;;;;;;;;;;;;;;;;;;5038426;28;20247;-82
2022/05/07 15:52:43;;;;;;;;;;;;;;;;;;5037673;28;19920;-83
2022/05/07 15:55:08;;;;;;;;;;;;;;;;;;5038117;28;19928;-82
2022/05/07 15:57:34;;;;;;;;;;;;;;;;;;5053155;28;20270;-81
2022/05/07 15:59:59;;;;;;;;;;;;;;;;;;5041181;28;19913;-83
2022/05/07 16:02:25;;;;;;;;;;;;;;;;;;5038840;28;19913;-82